sensor_id;sensor_type;location;lat;lon;timestamp;temperature;humidity
8459;DHT22;4266;48.816;9.154;2023-12-22T00:02:06;7.30;99.90
8459;DHT22;4266;48.816;9.154;2023-12-22T00:04:32;7.30;99.90
8459;DHT22;4266;48.816;9.154;2023-12-22T00:06:58;7.30;99.90
8459;DHT22;4266;48.816;9.154;2023-12-22T00:09:24;7.40;99.90
8459;DHT22;4266;48.816;9.154;2023-12-22T00:11:50;7.30;99.90
8459;DHT22;4266;48.816;9.154;2023-12-22T00:14:16;7.40;99.90
8459;DHT22;4266;48.816;9.154;2023-12-22T00:16:41;7.40;99.90
8459;DHT22;4266;48.816;9.154;2023-12-22T00:19:08;7.40;99.90
8459;DHT22;4266;48.816;9.154;2023-12-22T00:21:34;7.50;99.90
8459;DHT22;4266;48.816;9.154;2023-12-22T00:24:00;7.50;99.90
8459;DHT22;4266;48.816;9.154;2023-12-22T00:26:25;7.60;99.90
8459;DHT22;4266;48.816;9.154;2023-12-22T00:28:51;7.50;99.90
8459;DHT22;4266;48.816;9.154;2023-12-22T00:31:17;7.60;99.90
8459;DHT22;4266;48.816;9.154;2023-12-22T00:33:43;7.50;99.90
8459;DHT22;4266;48.816;9.154;2023-12-22T00:36:09;7.50;99.90
8459;DHT22;4266;48.816;9.154;2023-12-22T00:38:35;7.10;99.90
8459;DHT22;4266;48.816;9.154;2023-12-22T00:41:00;7.00;99.90
8459;DHT22;4266;48.816;9.154;2023-12-22T00:43:27;7.00;99.90
8459;DHT22;4266;48.816;9.154;2023-12-22T00:45:52;6.90;99.90
8459;DHT22;4266;48.816;9.154;2023-12-22T00:48:18;7.00;99.90
8459;DHT22;4266;48.816;9.154;2023-12-22T00:50:44;7.00;99.90
8459;DHT22;4266;48.816;9.154;2023-12-22T00:53:10;7.00;99.90
8459;DHT22;4266;48.816;9.154;2023-12-22T00:55:36;7.00;99.90
8459;DHT22;4266;48.816;9.154;2023-12-22T00:58:03;7.10;99.90
8459;DHT22;4266;48.816;9.154;2023-12-22T01:00:28;7.00;99.90
8459;DHT22;4266;48.816;9.154;2023-12-22T01:02:55;7.20;99.90
8459;DHT22;4266;48.816;9.154;2023-12-22T01:05:20;7.10;99.90
8459;DHT22;4266;48.816;9.154;2023-12-22T01:07:46;7.20;99.90
8459;DHT22;4266;48.816;9.154;2023-12-22T01:10:12;7.20;99.90
8459;DHT22;4266;48.816;9.154;2023-12-22T01:12:38;7.20;99.90
8459;DHT22;4266;48.816;9.154;2023-12-22T01:15:05;7.20;99.90
8459;DHT22;4266;48.816;9.154;2023-12-22T01:17:31;7.20;99.90
8459;DHT22;4266;48.816;9.154;2023-12-22T01:19:57;7.30;99.90
8459;DHT22;4266;48.816;9.154;2023-12-22T01:22:23;7.30;99.90
8459;DHT22;4266;48.816;9.154;2023-12-22T01:24:48;7.30;99.90
8459;DHT22;4266;48.816;9.154;2023-12-22T01:27:14;7.30;99.90
8459;DHT22;4266;48.816;9.154;2023-12-22T01:29:40;7.30;99.90
8459;DHT22;4266;48.816;9.154;2023-12-22T01:32:06;7.20;99.90
8459;DHT22;4266;48.816;9.154;2023-12-22T01:34:32;7.20;99.90
8459;DHT22;4266;48.816;9.154;2023-12-22T01:36:57;7.20;99.90
8459;DHT22;4266;48.816;9.154;2023-12-22T01:39:23;7.20;99.90
8459;DHT22;4266;48.816;9.154;2023-12-22T01:41:49;7.20;99.70
8459;DHT22;4266;48.816;9.154;2023-12-22T01:44:14;7.20;99.00
8459;DHT22;4266;48.816;9.154;2023-12-22T01:46:40;7.20;97.90
8459;DHT22;4266;48.816;9.154;2023-12-22T01:49:06;7.20;98.00
8459;DHT22;4266;48.816;9.154;2023-12-22T01:51:33;7.20;97.10
8459;DHT22;4266;48.816;9.154;2023-12-22T01:53:58;7.20;97.10
8459;DHT22;4266;48.816;9.154;2023-12-22T01:56:24;7.20;96.40
8459;DHT22;4266;48.816;9.154;2023-12-22T01:58:52;7.10;96.60
8459;DHT22;4266;48.816;9.154;2023-12-22T02:01:17;7.10;96.00
8459;DHT22;4266;48.816;9.154;2023-12-22T02:03:42;7.10;95.50
8459;DHT22;4266;48.816;9.154;2023-12-22T02:06:09;7.10;95.70
8459;DHT22;4266;48.816;9.154;2023-12-22T02:08:34;7.00;95.70
8459;DHT22;4266;48.816;9.154;2023-12-22T02:11:01;7.00;95.30
8459;DHT22;4266;48.816;9.154;2023-12-22T02:13:26;7.00;95.30
8459;DHT22;4266;48.816;9.154;2023-12-22T02:15:55;7.00;95.10
8459;DHT22;4266;48.816;9.154;2023-12-22T02:18:20;7.00;95.70
8459;DHT22;4266;48.816;9.154;2023-12-22T02:20:43;6.90;94.90
8459;DHT22;4266;48.816;9.154;2023-12-22T02:23:09;7.00;95.30
8459;DHT22;4266;48.816;9.154;2023-12-22T02:25:35;7.00;94.80
8459;DHT22;4266;48.816;9.154;2023-12-22T02:28:04;7.00;94.90
8459;DHT22;4266;48.816;9.154;2023-12-22T02:30:34;7.00;95.00
8459;DHT22;4266;48.816;9.154;2023-12-22T02:32:59;7.00;94.80
8459;DHT22;4266;48.816;9.154;2023-12-22T02:35:25;7.00;95.10
8459;DHT22;4266;48.816;9.154;2023-12-22T02:37:50;7.00;95.30
8459;DHT22;4266;48.816;9.154;2023-12-22T02:40:16;6.90;95.20
8459;DHT22;4266;48.816;9.154;2023-12-22T02:42:42;7.00;95.10
8459;DHT22;4266;48.816;9.154;2023-12-22T02:45:12;7.00;94.70
8459;DHT22;4266;48.816;9.154;2023-12-22T02:47:33;7.00;94.70
8459;DHT22;4266;48.816;9.154;2023-12-22T02:49:59;7.10;94.30
8459;DHT22;4266;48.816;9.154;2023-12-22T02:52:25;7.10;94.70
8459;DHT22;4266;48.816;9.154;2023-12-22T02:54:50;7.10;94.40
8459;DHT22;4266;48.816;9.154;2023-12-22T02:57:16;7.10;94.80
8459;DHT22;4266;48.816;9.154;2023-12-22T02:59:42;7.00;94.60
8459;DHT22;4266;48.816;9.154;2023-12-22T03:02:08;7.10;94.70
8459;DHT22;4266;48.816;9.154;2023-12-22T03:04:34;7.10;94.50
8459;DHT22;4266;48.816;9.154;2023-12-22T03:07:00;7.10;94.50
8459;DHT22;4266;48.816;9.154;2023-12-22T03:09:26;7.10;94.50
8459;DHT22;4266;48.816;9.154;2023-12-22T03:11:52;7.20;94.30
8459;DHT22;4266;48.816;9.154;2023-12-22T03:14:18;7.20;93.80
8459;DHT22;4266;48.816;9.154;2023-12-22T03:16:44;7.20;93.80
8459;DHT22;4266;48.816;9.154;2023-12-22T03:19:09;7.20;93.90
8459;DHT22;4266;48.816;9.154;2023-12-22T03:21:36;7.30;92.70
8459;DHT22;4266;48.816;9.154;2023-12-22T03:24:03;7.50;92.10
8459;DHT22;4266;48.816;9.154;2023-12-22T03:26:29;7.50;92.10
8459;DHT22;4266;48.816;9.154;2023-12-22T03:28:55;7.50;91.50
8459;DHT22;4266;48.816;9.154;2023-12-22T03:31:21;7.50;91.50
8459;DHT22;4266;48.816;9.154;2023-12-22T03:33:47;7.50;91.40
8459;DHT22;4266;48.816;9.154;2023-12-22T03:36:13;7.50;91.50
8459;DHT22;4266;48.816;9.154;2023-12-22T03:38:38;7.50;91.50
8459;DHT22;4266;48.816;9.154;2023-12-22T03:41:04;7.50;91.50
8459;DHT22;4266;48.816;9.154;2023-12-22T03:43:30;7.50;91.40
8459;DHT22;4266;48.816;9.154;2023-12-22T03:45:55;7.50;91.30
8459;DHT22;4266;48.816;9.154;2023-12-22T03:48:21;7.50;91.70
8459;DHT22;4266;48.816;9.154;2023-12-22T03:50:47;7.50;91.50
8459;DHT22;4266;48.816;9.154;2023-12-22T03:53:24;7.50;91.50
8459;DHT22;4266;48.816;9.154;2023-12-22T03:55:50;7.60;91.80
8459;DHT22;4266;48.816;9.154;2023-12-22T03:58:16;7.50;91.60
8459;DHT22;4266;48.816;9.154;2023-12-22T04:00:42;7.20;94.80
8459;DHT22;4266;48.816;9.154;2023-12-22T04:03:08;7.20;94.90
8459;DHT22;4266;48.816;9.154;2023-12-22T04:05:33;7.00;97.00
8459;DHT22;4266;48.816;9.154;2023-12-22T04:07:59;7.00;98.50
8459;DHT22;4266;48.816;9.154;2023-12-22T04:10:26;6.80;99.90
8459;DHT22;4266;48.816;9.154;2023-12-22T04:12:52;6.80;99.90
8459;DHT22;4266;48.816;9.154;2023-12-22T04:15:18;6.80;99.90
8459;DHT22;4266;48.816;9.154;2023-12-22T04:17:44;6.80;99.90
8459;DHT22;4266;48.816;9.154;2023-12-22T04:20:10;6.70;99.90
8459;DHT22;4266;48.816;9.154;2023-12-22T04:22:36;6.70;99.90
8459;DHT22;4266;48.816;9.154;2023-12-22T04:25:02;6.60;99.90
8459;DHT22;4266;48.816;9.154;2023-12-22T04:27:28;6.70;99.00
8459;DHT22;4266;48.816;9.154;2023-12-22T04:29:54;6.70;99.00
8459;DHT22;4266;48.816;9.154;2023-12-22T04:32:20;6.80;98.90
8459;DHT22;4266;48.816;9.154;2023-12-22T04:34:47;6.80;97.80
8459;DHT22;4266;48.816;9.154;2023-12-22T04:37:12;6.80;97.80
8459;DHT22;4266;48.816;9.154;2023-12-22T04:39:38;6.80;97.90
8459;DHT22;4266;48.816;9.154;2023-12-22T04:42:05;6.90;96.50
8459;DHT22;4266;48.816;9.154;2023-12-22T04:44:30;6.90;96.50
8459;DHT22;4266;48.816;9.154;2023-12-22T04:46:56;7.00;96.40
8459;DHT22;4266;48.816;9.154;2023-12-22T04:49:22;6.90;95.90
8459;DHT22;4266;48.816;9.154;2023-12-22T04:51:48;6.90;95.90
8459;DHT22;4266;48.816;9.154;2023-12-22T04:54:14;7.00;95.50
8459;DHT22;4266;48.816;9.154;2023-12-22T04:56:40;7.00;95.50
8459;DHT22;4266;48.816;9.154;2023-12-22T04:59:06;7.10;95.00
8459;DHT22;4266;48.816;9.154;2023-12-22T05:01:31;7.00;94.70
8459;DHT22;4266;48.816;9.154;2023-12-22T05:03:58;7.00;94.90
8459;DHT22;4266;48.816;9.154;2023-12-22T05:06:24;7.00;94.80
8459;DHT22;4266;48.816;9.154;2023-12-22T05:08:50;7.00;94.80
8459;DHT22;4266;48.816;9.154;2023-12-22T05:11:16;7.00;94.80
8459;DHT22;4266;48.816;9.154;2023-12-22T05:13:41;7.00;94.90
8459;DHT22;4266;48.816;9.154;2023-12-22T05:16:08;7.00;94.80
8459;DHT22;4266;48.816;9.154;2023-12-22T05:18:33;7.00;94.80
8459;DHT22;4266;48.816;9.154;2023-12-22T05:20:59;7.10;94.50
8459;DHT22;4266;48.816;9.154;2023-12-22T05:23:25;7.10;94.90
8459;DHT22;4266;48.816;9.154;2023-12-22T05:25:51;7.10;94.80
8459;DHT22;4266;48.816;9.154;2023-12-22T05:28:17;7.00;94.80
8459;DHT22;4266;48.816;9.154;2023-12-22T05:30:42;7.20;94.40
8459;DHT22;4266;48.816;9.154;2023-12-22T05:33:08;7.20;94.40
8459;DHT22;4266;48.816;9.154;2023-12-22T05:35:34;7.20;94.50
8459;DHT22;4266;48.816;9.154;2023-12-22T05:37:59;7.20;94.80
8459;DHT22;4266;48.816;9.154;2023-12-22T05:40:25;7.20;95.10
8459;DHT22;4266;48.816;9.154;2023-12-22T05:42:51;7.10;95.10
8459;DHT22;4266;48.816;9.154;2023-12-22T05:45:17;7.10;96.00
8459;DHT22;4266;48.816;9.154;2023-12-22T05:47:44;7.10;94.70
8459;DHT22;4266;48.816;9.154;2023-12-22T05:50:09;7.10;94.70
8459;DHT22;4266;48.816;9.154;2023-12-22T05:52:35;7.20;94.30
8459;DHT22;4266;48.816;9.154;2023-12-22T05:55:01;7.30;94.10
8459;DHT22;4266;48.816;9.154;2023-12-22T05:57:26;7.30;94.00
8459;DHT22;4266;48.816;9.154;2023-12-22T05:59:53;7.40;93.30
8459;DHT22;4266;48.816;9.154;2023-12-22T06:02:18;7.40;93.20
8459;DHT22;4266;48.816;9.154;2023-12-22T06:04:44;7.40;92.90
8459;DHT22;4266;48.816;9.154;2023-12-22T06:07:10;7.50;92.30
8459;DHT22;4266;48.816;9.154;2023-12-22T06:09:35;7.50;92.10
8459;DHT22;4266;48.816;9.154;2023-12-22T06:12:01;7.50;92.10
8459;DHT22;4266;48.816;9.154;2023-12-22T06:14:27;7.50;92.00
8459;DHT22;4266;48.816;9.154;2023-12-22T06:16:53;7.50;92.10
8459;DHT22;4266;48.816;9.154;2023-12-22T06:19:18;7.50;92.00
8459;DHT22;4266;48.816;9.154;2023-12-22T06:21:44;7.60;91.90
8459;DHT22;4266;48.816;9.154;2023-12-22T06:24:10;7.60;91.80
8459;DHT22;4266;48.816;9.154;2023-12-22T06:26:36;7.60;91.90
8459;DHT22;4266;48.816;9.154;2023-12-22T06:29:02;7.60;91.90
8459;DHT22;4266;48.816;9.154;2023-12-22T06:31:28;7.60;91.90
8459;DHT22;4266;48.816;9.154;2023-12-22T06:33:54;7.60;91.90
8459;DHT22;4266;48.816;9.154;2023-12-22T06:36:20;7.60;91.90
8459;DHT22;4266;48.816;9.154;2023-12-22T06:38:46;7.60;92.20
8459;DHT22;4266;48.816;9.154;2023-12-22T06:41:20;7.60;91.80
8459;DHT22;4266;48.816;9.154;2023-12-22T06:43:44;7.50;91.70
8459;DHT22;4266;48.816;9.154;2023-12-22T06:46:16;7.60;91.60
8459;DHT22;4266;48.816;9.154;2023-12-22T06:48:41;7.60;91.60
8459;DHT22;4266;48.816;9.154;2023-12-22T06:51:07;7.70;91.20
8459;DHT22;4266;48.816;9.154;2023-12-22T06:53:33;7.70;91.20
8459;DHT22;4266;48.816;9.154;2023-12-22T06:55:58;7.70;91.50
8459;DHT22;4266;48.816;9.154;2023-12-22T06:58:25;7.70;91.10
8459;DHT22;4266;48.816;9.154;2023-12-22T07:00:50;7.70;91.10
8459;DHT22;4266;48.816;9.154;2023-12-22T07:03:16;7.70;91.30
8459;DHT22;4266;48.816;9.154;2023-12-22T07:05:42;7.70;91.30
8459;DHT22;4266;48.816;9.154;2023-12-22T07:08:07;7.70;91.60
8459;DHT22;4266;48.816;9.154;2023-12-22T07:10:33;7.70;91.50
8459;DHT22;4266;48.816;9.154;2023-12-22T07:12:59;7.80;91.70
8459;DHT22;4266;48.816;9.154;2023-12-22T07:15:24;7.70;91.70
8459;DHT22;4266;48.816;9.154;2023-12-22T07:17:50;7.70;91.90
8459;DHT22;4266;48.816;9.154;2023-12-22T07:20:16;7.70;92.20
8459;DHT22;4266;48.816;9.154;2023-12-22T07:22:44;7.70;92.00
8459;DHT22;4266;48.816;9.154;2023-12-22T07:25:08;7.60;92.50
8459;DHT22;4266;48.816;9.154;2023-12-22T07:27:34;7.60;92.50
8459;DHT22;4266;48.816;9.154;2023-12-22T07:29:59;7.60;92.60
8459;DHT22;4266;48.816;9.154;2023-12-22T07:32:25;7.60;92.60
8459;DHT22;4266;48.816;9.154;2023-12-22T07:34:51;7.60;92.50
8459;DHT22;4266;48.816;9.154;2023-12-22T07:37:16;7.60;92.50
8459;DHT22;4266;48.816;9.154;2023-12-22T07:39:42;7.70;92.60
8459;DHT22;4266;48.816;9.154;2023-12-22T07:42:08;7.70;92.40
8459;DHT22;4266;48.816;9.154;2023-12-22T07:44:33;7.70;92.30
8459;DHT22;4266;48.816;9.154;2023-12-22T07:46:59;7.60;92.40
8459;DHT22;4266;48.816;9.154;2023-12-22T07:49:25;7.70;92.50
8459;DHT22;4266;48.816;9.154;2023-12-22T07:51:51;7.70;92.60
8459;DHT22;4266;48.816;9.154;2023-12-22T07:54:17;7.70;92.60
8459;DHT22;4266;48.816;9.154;2023-12-22T07:56:42;7.70;92.60
8459;DHT22;4266;48.816;9.154;2023-12-22T07:59:08;7.70;92.80
8459;DHT22;4266;48.816;9.154;2023-12-22T08:01:34;7.70;92.90
8459;DHT22;4266;48.816;9.154;2023-12-22T08:04:00;7.60;93.70
8459;DHT22;4266;48.816;9.154;2023-12-22T08:06:26;7.50;95.60
8459;DHT22;4266;48.816;9.154;2023-12-22T08:08:52;7.40;95.60
8459;DHT22;4266;48.816;9.154;2023-12-22T08:11:17;7.40;97.20
8459;DHT22;4266;48.816;9.154;2023-12-22T08:13:44;7.20;99.60
8459;DHT22;4266;48.816;9.154;2023-12-22T08:16:10;7.20;99.40
8459;DHT22;4266;48.816;9.154;2023-12-22T08:18:36;7.20;99.80
8459;DHT22;4266;48.816;9.154;2023-12-22T08:21:03;7.20;99.90
8459;DHT22;4266;48.816;9.154;2023-12-22T08:23:29;7.20;99.90
8459;DHT22;4266;48.816;9.154;2023-12-22T08:25:54;7.20;99.90
8459;DHT22;4266;48.816;9.154;2023-12-22T08:28:21;7.20;99.90
8459;DHT22;4266;48.816;9.154;2023-12-22T08:30:46;7.20;99.90
8459;DHT22;4266;48.816;9.154;2023-12-22T08:33:12;7.20;99.90
8459;DHT22;4266;48.816;9.154;2023-12-22T08:35:38;7.10;99.90
8459;DHT22;4266;48.816;9.154;2023-12-22T08:38:03;7.10;99.90
8459;DHT22;4266;48.816;9.154;2023-12-22T08:40:30;7.20;99.90
8459;DHT22;4266;48.816;9.154;2023-12-22T08:42:56;7.20;99.90
8459;DHT22;4266;48.816;9.154;2023-12-22T08:45:23;7.30;98.20
8459;DHT22;4266;48.816;9.154;2023-12-22T08:47:49;7.30;98.20
8459;DHT22;4266;48.816;9.154;2023-12-22T08:50:14;7.30;98.80
8459;DHT22;4266;48.816;9.154;2023-12-22T08:52:41;7.30;97.90
8459;DHT22;4266;48.816;9.154;2023-12-22T08:55:07;7.30;97.90
8459;DHT22;4266;48.816;9.154;2023-12-22T08:57:32;7.40;97.90
8459;DHT22;4266;48.816;9.154;2023-12-22T08:59:59;7.50;97.00
8459;DHT22;4266;48.816;9.154;2023-12-22T09:02:24;7.50;97.20
8459;DHT22;4266;48.816;9.154;2023-12-22T09:04:50;7.50;96.60
8459;DHT22;4266;48.816;9.154;2023-12-22T09:07:16;7.60;96.70
8459;DHT22;4266;48.816;9.154;2023-12-22T09:09:41;7.60;96.30
8459;DHT22;4266;48.816;9.154;2023-12-22T09:12:08;7.70;95.50
8459;DHT22;4266;48.816;9.154;2023-12-22T09:14:34;7.70;95.50
8459;DHT22;4266;48.816;9.154;2023-12-22T09:16:59;7.70;95.00
8459;DHT22;4266;48.816;9.154;2023-12-22T09:19:25;7.80;94.50
8459;DHT22;4266;48.816;9.154;2023-12-22T09:21:51;7.90;93.90
8459;DHT22;4266;48.816;9.154;2023-12-22T09:24:16;7.90;93.20
8459;DHT22;4266;48.816;9.154;2023-12-22T09:26:42;7.90;93.20
8459;DHT22;4266;48.816;9.154;2023-12-22T09:29:08;8.00;92.80
8459;DHT22;4266;48.816;9.154;2023-12-22T09:31:33;8.00;92.50
8459;DHT22;4266;48.816;9.154;2023-12-22T09:33:59;8.00;92.40
8459;DHT22;4266;48.816;9.154;2023-12-22T09:36:25;8.10;92.20
8459;DHT22;4266;48.816;9.154;2023-12-22T09:38:50;8.10;92.30
8459;DHT22;4266;48.816;9.154;2023-12-22T09:41:16;8.10;91.70
8459;DHT22;4266;48.816;9.154;2023-12-22T09:43:42;8.10;91.70
8459;DHT22;4266;48.816;9.154;2023-12-22T09:46:07;8.20;91.40
8459;DHT22;4266;48.816;9.154;2023-12-22T09:48:34;8.20;91.50
8459;DHT22;4266;48.816;9.154;2023-12-22T09:51:01;8.30;91.30
8459;DHT22;4266;48.816;9.154;2023-12-22T09:53:27;8.20;91.30
8459;DHT22;4266;48.816;9.154;2023-12-22T09:56:00;8.30;91.20
8459;DHT22;4266;48.816;9.154;2023-12-22T09:58:27;8.30;90.90
8459;DHT22;4266;48.816;9.154;2023-12-22T10:00:53;8.30;90.90
8459;DHT22;4266;48.816;9.154;2023-12-22T10:03:19;8.30;90.60
8459;DHT22;4266;48.816;9.154;2023-12-22T10:05:46;8.40;90.90
8459;DHT22;4266;48.816;9.154;2023-12-22T10:08:11;8.40;90.90
8459;DHT22;4266;48.816;9.154;2023-12-22T10:10:38;8.40;90.90
8459;DHT22;4266;48.816;9.154;2023-12-22T10:13:04;8.30;90.90
8459;DHT22;4266;48.816;9.154;2023-12-22T10:15:29;8.30;90.70
8459;DHT22;4266;48.816;9.154;2023-12-22T10:17:56;8.40;90.80
8459;DHT22;4266;48.816;9.154;2023-12-22T10:20:21;8.40;90.70
8459;DHT22;4266;48.816;9.154;2023-12-22T10:22:47;8.50;90.70
8459;DHT22;4266;48.816;9.154;2023-12-22T10:25:15;8.60;90.20
8459;DHT22;4266;48.816;9.154;2023-12-22T10:27:42;8.50;90.30
8459;DHT22;4266;48.816;9.154;2023-12-22T10:30:07;8.60;90.30
8459;DHT22;4266;48.816;9.154;2023-12-22T10:32:33;8.50;90.00
8459;DHT22;4266;48.816;9.154;2023-12-22T10:34:59;8.60;90.00
8459;DHT22;4266;48.816;9.154;2023-12-22T10:37:25;8.60;90.00
8459;DHT22;4266;48.816;9.154;2023-12-22T10:39:53;8.70;90.50
8459;DHT22;4266;48.816;9.154;2023-12-22T10:42:18;8.60;90.60
8459;DHT22;4266;48.816;9.154;2023-12-22T10:44:44;8.60;90.90
8459;DHT22;4266;48.816;9.154;2023-12-22T10:47:10;8.60;91.00
8459;DHT22;4266;48.816;9.154;2023-12-22T10:49:35;8.60;91.10
8459;DHT22;4266;48.816;9.154;2023-12-22T10:52:02;8.60;91.90
8459;DHT22;4266;48.816;9.154;2023-12-22T10:54:28;8.50;91.90
8459;DHT22;4266;48.816;9.154;2023-12-22T10:56:57;8.60;92.20
8459;DHT22;4266;48.816;9.154;2023-12-22T10:59:22;8.50;92.30
8459;DHT22;4266;48.816;9.154;2023-12-22T11:01:47;8.50;92.30
8459;DHT22;4266;48.816;9.154;2023-12-22T11:04:14;8.50;92.30
8459;DHT22;4266;48.816;9.154;2023-12-22T11:06:41;8.60;92.60
8459;DHT22;4266;48.816;9.154;2023-12-22T11:09:07;8.60;92.60
8459;DHT22;4266;48.816;9.154;2023-12-22T11:11:33;8.50;93.00
8459;DHT22;4266;48.816;9.154;2023-12-22T11:14:00;8.50;93.30
8459;DHT22;4266;48.816;9.154;2023-12-22T11:16:25;8.40;93.60
8459;DHT22;4266;48.816;9.154;2023-12-22T11:18:52;8.40;93.90
8459;DHT22;4266;48.816;9.154;2023-12-22T11:21:17;8.40;94.80
8459;DHT22;4266;48.816;9.154;2023-12-22T11:23:43;8.40;94.70
8459;DHT22;4266;48.816;9.154;2023-12-22T11:26:08;8.30;95.20
8459;DHT22;4266;48.816;9.154;2023-12-22T11:28:34;8.30;95.80
8459;DHT22;4266;48.816;9.154;2023-12-22T11:31:00;8.30;96.10
8459;DHT22;4266;48.816;9.154;2023-12-22T11:33:25;8.20;96.20
8459;DHT22;4266;48.816;9.154;2023-12-22T11:35:51;8.20;96.70
8459;DHT22;4266;48.816;9.154;2023-12-22T11:38:17;8.20;96.40
8459;DHT22;4266;48.816;9.154;2023-12-22T11:40:43;8.10;96.40
8459;DHT22;4266;48.816;9.154;2023-12-22T11:43:09;8.20;96.40
8459;DHT22;4266;48.816;9.154;2023-12-22T11:45:35;8.10;96.40
8459;DHT22;4266;48.816;9.154;2023-12-22T11:48:08;8.10;97.50
8459;DHT22;4266;48.816;9.154;2023-12-22T11:50:33;8.10;97.50
8459;DHT22;4266;48.816;9.154;2023-12-22T11:53:36;8.00;97.70
8459;DHT22;4266;48.816;9.154;2023-12-22T11:55:56;8.00;98.10
8459;DHT22;4266;48.816;9.154;2023-12-22T11:58:47;8.00;98.10
8459;DHT22;4266;48.816;9.154;2023-12-22T12:01:12;8.00;98.30
8459;DHT22;4266;48.816;9.154;2023-12-22T12:03:58;8.00;98.40
8459;DHT22;4266;48.816;9.154;2023-12-22T12:06:32;7.90;99.20
8459;DHT22;4266;48.816;9.154;2023-12-22T12:08:58;7.90;98.90
8459;DHT22;4266;48.816;9.154;2023-12-22T12:11:23;8.00;98.70
8459;DHT22;4266;48.816;9.154;2023-12-22T12:13:50;8.10;98.60
8459;DHT22;4266;48.816;9.154;2023-12-22T12:16:19;8.00;98.60
8459;DHT22;4266;48.816;9.154;2023-12-22T12:18:45;8.00;98.50
8459;DHT22;4266;48.816;9.154;2023-12-22T12:21:10;8.10;98.90
8459;DHT22;4266;48.816;9.154;2023-12-22T12:23:35;8.00;98.30
8459;DHT22;4266;48.816;9.154;2023-12-22T12:26:01;8.00;98.30
8459;DHT22;4266;48.816;9.154;2023-12-22T12:28:28;7.90;98.10
8459;DHT22;4266;48.816;9.154;2023-12-22T12:31:00;8.00;98.30
8459;DHT22;4266;48.816;9.154;2023-12-22T12:33:26;8.00;98.30
8459;DHT22;4266;48.816;9.154;2023-12-22T12:35:52;8.00;98.00
8459;DHT22;4266;48.816;9.154;2023-12-22T12:38:18;8.10;98.10
8459;DHT22;4266;48.816;9.154;2023-12-22T12:40:43;8.10;98.00
8459;DHT22;4266;48.816;9.154;2023-12-22T12:43:09;8.20;98.40
8459;DHT22;4266;48.816;9.154;2023-12-22T12:45:35;8.10;98.10
8459;DHT22;4266;48.816;9.154;2023-12-22T12:48:01;8.20;98.30
8459;DHT22;4266;48.816;9.154;2023-12-22T12:50:26;8.10;98.00
8459;DHT22;4266;48.816;9.154;2023-12-22T12:52:52;8.10;98.00
8459;DHT22;4266;48.816;9.154;2023-12-22T12:55:18;8.20;98.10
8459;DHT22;4266;48.816;9.154;2023-12-22T12:57:43;8.20;98.10
8459;DHT22;4266;48.816;9.154;2023-12-22T13:00:10;8.20;98.20
8459;DHT22;4266;48.816;9.154;2023-12-22T13:02:36;8.20;98.60
8459;DHT22;4266;48.816;9.154;2023-12-22T13:05:03;8.20;98.40
8459;DHT22;4266;48.816;9.154;2023-12-22T13:07:29;8.30;98.90
8459;DHT22;4266;48.816;9.154;2023-12-22T13:09:55;8.30;98.90
8459;DHT22;4266;48.816;9.154;2023-12-22T13:12:23;8.40;98.70
8459;DHT22;4266;48.816;9.154;2023-12-22T13:14:48;8.40;98.70
8459;DHT22;4266;48.816;9.154;2023-12-22T13:17:15;8.70;98.60
8459;DHT22;4266;48.816;9.154;2023-12-22T13:19:41;8.80;98.70
8459;DHT22;4266;48.816;9.154;2023-12-22T13:22:07;8.80;98.70
8459;DHT22;4266;48.816;9.154;2023-12-22T13:24:32;8.80;98.60
8459;DHT22;4266;48.816;9.154;2023-12-22T13:27:01;9.00;98.40
8459;DHT22;4266;48.816;9.154;2023-12-22T13:29:26;8.90;98.30
8459;DHT22;4266;48.816;9.154;2023-12-22T13:31:52;9.00;98.40
8459;DHT22;4266;48.816;9.154;2023-12-22T13:34:18;9.10;98.00
8459;DHT22;4266;48.816;9.154;2023-12-22T13:36:44;9.10;97.80
8459;DHT22;4266;48.816;9.154;2023-12-22T13:39:10;9.20;97.80
8459;DHT22;4266;48.816;9.154;2023-12-22T13:41:38;9.20;97.90
8459;DHT22;4266;48.816;9.154;2023-12-22T13:44:04;9.20;97.70
8459;DHT22;4266;48.816;9.154;2023-12-22T13:46:31;9.30;97.40
8459;DHT22;4266;48.816;9.154;2023-12-22T13:48:57;9.40;97.10
8459;DHT22;4266;48.816;9.154;2023-12-22T13:51:23;9.30;97.00
8459;DHT22;4266;48.816;9.154;2023-12-22T13:53:49;9.40;97.10
8459;DHT22;4266;48.816;9.154;2023-12-22T13:56:14;9.40;96.60
8459;DHT22;4266;48.816;9.154;2023-12-22T13:58:43;9.50;96.60
8459;DHT22;4266;48.816;9.154;2023-12-22T14:01:12;9.40;96.60
8459;DHT22;4266;48.816;9.154;2023-12-22T14:03:35;9.50;96.60
8459;DHT22;4266;48.816;9.154;2023-12-22T14:06:00;9.50;96.60
8459;DHT22;4266;48.816;9.154;2023-12-22T14:08:26;9.60;96.30
8459;DHT22;4266;48.816;9.154;2023-12-22T14:10:52;9.50;96.30
8459;DHT22;4266;48.816;9.154;2023-12-22T14:13:19;9.50;96.60
8459;DHT22;4266;48.816;9.154;2023-12-22T14:15:45;9.50;96.40
8459;DHT22;4266;48.816;9.154;2023-12-22T14:18:10;9.60;96.20
8459;DHT22;4266;48.816;9.154;2023-12-22T14:20:36;9.60;96.20
8459;DHT22;4266;48.816;9.154;2023-12-22T14:23:02;9.60;96.30
8459;DHT22;4266;48.816;9.154;2023-12-22T14:25:28;9.60;96.10
8459;DHT22;4266;48.816;9.154;2023-12-22T14:27:53;9.50;96.00
8459;DHT22;4266;48.816;9.154;2023-12-22T14:30:19;9.60;96.00
8459;DHT22;4266;48.816;9.154;2023-12-22T14:32:45;9.70;96.00
8459;DHT22;4266;48.816;9.154;2023-12-22T14:35:10;9.70;95.90
8459;DHT22;4266;48.816;9.154;2023-12-22T14:37:36;9.70;95.90
8459;DHT22;4266;48.816;9.154;2023-12-22T14:40:02;9.70;95.90
8459;DHT22;4266;48.816;9.154;2023-12-22T14:42:28;9.70;95.90
8459;DHT22;4266;48.816;9.154;2023-12-22T14:44:54;9.60;95.90
8459;DHT22;4266;48.816;9.154;2023-12-22T14:47:20;9.70;96.00
8459;DHT22;4266;48.816;9.154;2023-12-22T14:49:46;9.60;95.90
8459;DHT22;4266;48.816;9.154;2023-12-22T14:52:12;9.70;95.90
8459;DHT22;4266;48.816;9.154;2023-12-22T14:54:37;9.70;95.90
8459;DHT22;4266;48.816;9.154;2023-12-22T14:57:03;9.70;95.90
8459;DHT22;4266;48.816;9.154;2023-12-22T14:59:30;9.70;95.90
8459;DHT22;4266;48.816;9.154;2023-12-22T15:01:55;9.70;95.90
8459;DHT22;4266;48.816;9.154;2023-12-22T15:04:22;9.60;95.90
8459;DHT22;4266;48.816;9.154;2023-12-22T15:06:48;9.60;95.80
8459;DHT22;4266;48.816;9.154;2023-12-22T15:09:15;9.60;95.90
8459;DHT22;4266;48.816;9.154;2023-12-22T15:11:42;9.50;95.70
8459;DHT22;4266;48.816;9.154;2023-12-22T15:14:07;9.60;95.90
8459;DHT22;4266;48.816;9.154;2023-12-22T15:16:33;9.50;96.00
8459;DHT22;4266;48.816;9.154;2023-12-22T15:18:58;9.50;96.20
8459;DHT22;4266;48.816;9.154;2023-12-22T15:21:24;9.50;96.30
8459;DHT22;4266;48.816;9.154;2023-12-22T15:23:50;9.50;96.40
8459;DHT22;4266;48.816;9.154;2023-12-22T15:26:21;9.50;96.50
8459;DHT22;4266;48.816;9.154;2023-12-22T15:28:46;9.50;96.60
8459;DHT22;4266;48.816;9.154;2023-12-22T15:31:12;9.50;96.60
8459;DHT22;4266;48.816;9.154;2023-12-22T15:33:38;9.50;96.60
8459;DHT22;4266;48.816;9.154;2023-12-22T15:36:05;9.50;96.50
8459;DHT22;4266;48.816;9.154;2023-12-22T15:38:31;9.60;96.20
8459;DHT22;4266;48.816;9.154;2023-12-22T15:40:59;9.50;96.00
8459;DHT22;4266;48.816;9.154;2023-12-22T15:43:25;9.50;96.20
8459;DHT22;4266;48.816;9.154;2023-12-22T15:45:50;9.60;95.80
8459;DHT22;4266;48.816;9.154;2023-12-22T15:48:17;9.60;95.40
8459;DHT22;4266;48.816;9.154;2023-12-22T15:50:42;9.60;95.40
8459;DHT22;4266;48.816;9.154;2023-12-22T15:53:08;9.60;95.10
8459;DHT22;4266;48.816;9.154;2023-12-22T15:55:35;9.60;94.80
8459;DHT22;4266;48.816;9.154;2023-12-22T15:58:00;9.60;94.80
8459;DHT22;4266;48.816;9.154;2023-12-22T16:00:26;9.60;94.90
8459;DHT22;4266;48.816;9.154;2023-12-22T16:02:52;9.70;94.70
8459;DHT22;4266;48.816;9.154;2023-12-22T16:05:18;9.70;94.60
8459;DHT22;4266;48.816;9.154;2023-12-22T16:07:44;9.70;94.70
8459;DHT22;4266;48.816;9.154;2023-12-22T16:10:10;9.70;94.60